createdAt,value
2018-05-23T00:02:06.744Z,30.13
2018-05-23T00:04:34.256Z,29.13
2018-05-23T00:07:02.605Z,28.13
2018-05-23T00:09:30.963Z,28.77
2018-05-23T00:11:58.522Z,28.50
2018-05-23T00:14:26.089Z,29.10
2018-05-23T00:16:53.856Z,30.17
2018-05-23T00:19:21.389Z,29.37
2018-05-23T00:21:49.200Z,29.87
2018-05-23T00:24:17.491Z,29.87
2018-05-23T00:26:45.794Z,31.63
2018-05-23T00:29:13.315Z,32.17
2018-05-23T00:31:40.825Z,28.27
2018-05-23T00:34:08.369Z,33.50
2018-05-23T00:36:35.879Z,32.23
2018-05-23T00:39:03.391Z,34.87
2018-05-23T00:41:30.930Z,35.10
2018-05-23T00:43:59.198Z,33.43
2018-05-23T00:46:27.479Z,34.97
2018-05-23T00:48:55.786Z,37.03
2018-05-23T00:51:23.314Z,36.17
2018-05-23T00:53:51.594Z,35.43
2018-05-23T00:56:19.878Z,35.33
2018-05-23T00:58:48.176Z,36.77
2018-05-23T01:01:15.699Z,38.93
2018-05-23T01:03:43.999Z,37.40
2018-05-23T01:06:11.511Z,39.60
2018-05-23T01:08:39.015Z,39.40
2018-05-23T01:11:06.531Z,39.33
2018-05-23T01:13:34.072Z,40.13
2018-05-23T01:16:01.680Z,40.50
2018-05-23T01:18:29.996Z,40.27
2018-05-23T01:20:57.516Z,44.20
2018-05-23T01:23:25.792Z,40.70
2018-05-23T01:25:54.079Z,38.47
2018-05-23T01:28:22.347Z,43.20
2018-05-23T01:30:50.729Z,43.93
2018-05-23T01:33:18.345Z,43.30
2018-05-23T01:35:45.923Z,43.40
2018-05-23T01:38:13.427Z,48.23
2018-05-23T01:40:41.072Z,44.47
2018-05-23T01:43:09.349Z,47.10
2018-05-23T01:45:37.628Z,56.00
2018-05-23T01:48:05.151Z,49.17
2018-05-23T01:50:32.678Z,47.10
2018-05-23T01:53:00.202Z,45.30
2018-05-23T01:55:27.848Z,45.67
2018-05-23T01:57:55.399Z,46.97
2018-05-23T02:00:22.920Z,46.10
2018-05-23T02:02:50.786Z,46.90
2018-05-23T02:05:18.304Z,47.77
2018-05-23T02:07:46.663Z,48.77
2018-05-23T02:10:14.245Z,49.07
2018-05-23T02:12:42.523Z,45.67
2018-05-23T02:15:10.055Z,48.90
2018-05-23T02:17:37.703Z,49.23
2018-05-23T02:20:05.204Z,53.57
2018-05-23T02:22:32.712Z,51.37
2018-05-23T02:25:00.235Z,50.17
2018-05-23T02:27:27.751Z,47.07
2018-05-23T02:29:55.251Z,48.97
2018-05-23T02:32:22.963Z,47.63
2018-05-23T02:34:50.560Z,50.40
2018-05-23T02:37:18.202Z,46.83
2018-05-23T02:39:45.771Z,46.50
2018-05-23T02:42:14.210Z,49.20
2018-05-23T02:44:42.110Z,46.10
2018-05-23T02:47:09.741Z,47.17
2018-05-23T02:49:37.182Z,45.47
2018-05-23T02:52:04.703Z,46.07
2018-05-23T02:54:34.691Z,46.87
2018-05-23T02:57:02.241Z,46.83
2018-05-23T02:59:29.760Z,47.03
2018-05-23T03:01:57.266Z,44.60
2018-05-23T03:04:24.779Z,46.10
2018-05-23T03:06:52.314Z,47.87
2018-05-23T03:09:20.610Z,46.47
2018-05-23T03:11:48.238Z,53.33
2018-05-23T03:14:15.797Z,48.60
2018-05-23T03:16:43.431Z,50.30
2018-05-23T03:19:11.201Z,52.13
2018-05-23T03:21:38.783Z,48.43
2018-05-23T03:24:06.288Z,53.50
2018-05-23T03:26:34.751Z,55.97
2018-05-23T03:29:02.281Z,59.07
2018-05-23T03:31:29.811Z,57.77
2018-05-23T03:33:57.435Z,64.27
2018-05-23T03:36:24.979Z,63.33
2018-05-23T03:38:53.258Z,64.57
2018-05-23T03:41:20.952Z,62.40
2018-05-23T03:43:48.479Z,67.47
2018-05-23T03:46:16.792Z,65.30
2018-05-23T03:48:44.374Z,68.83
2018-05-23T03:51:11.875Z,66.43
2018-05-23T03:53:40.151Z,70.00
2018-05-23T03:56:07.687Z,66.97
2018-05-23T03:58:35.197Z,77.83
2018-05-23T04:01:14.527Z,73.57
2018-05-23T04:03:53.923Z,71.77
2018-05-23T04:09:21.446Z,74.07
2018-05-23T04:11:49.733Z,71.70
2018-05-23T04:14:17.368Z,77.40
2018-05-23T04:16:45.113Z,74.67
2018-05-23T04:19:12.828Z,75.25
2018-05-23T04:21:40.352Z,74.87
2018-05-23T04:24:08.631Z,72.60
2018-05-23T04:26:36.190Z,83.37
2018-05-23T04:29:04.547Z,78.50
2018-05-23T04:31:32.248Z,78.00
2018-05-23T04:33:59.953Z,76.85
2018-05-23T04:36:27.479Z,84.90
2018-05-23T04:38:55.043Z,78.90
2018-05-23T04:41:22.575Z,91.23
2018-05-23T04:43:50.219Z,76.90
2018-05-23T04:46:17.789Z,97.85
2018-05-23T04:48:46.286Z,90.67
2018-05-23T04:51:13.956Z,99.23
2018-05-23T04:53:41.527Z,90.10
2018-05-23T04:56:09.062Z,97.07
2018-05-23T04:58:37.336Z,105.83
2018-05-23T05:01:05.679Z,97.63
2018-05-23T05:03:33.462Z,101.70
2018-05-23T05:06:01.138Z,110.80
2018-05-23T05:08:28.745Z,94.45
2018-05-23T05:10:56.296Z,103.80
2018-05-23T05:13:23.815Z,95.20
2018-05-23T05:15:52.095Z,92.10
2018-05-23T05:18:20.415Z,93.15
2018-05-23T05:20:48.375Z,89.35
2018-05-23T05:23:15.903Z,94.85
2018-05-23T05:25:44.191Z,94.60
2018-05-23T05:28:12.653Z,97.80
2018-05-23T05:30:40.256Z,100.90
2018-05-23T05:33:07.930Z,102.50
2018-05-23T05:35:35.483Z,88.30
2018-05-23T05:38:03.033Z,84.97
2018-05-23T05:40:30.775Z,99.00
2018-05-23T05:42:59.187Z,94.40
2018-05-23T05:45:27.529Z,89.20
2018-05-23T05:47:55.268Z,78.75
2018-05-23T05:50:23.564Z,79.10
2018-05-23T05:52:51.915Z,71.40
2018-05-23T05:55:19.486Z,76.75
2018-05-23T06:49:23.829Z,59.37
2018-05-23T07:55:41.223Z,48.05
2018-05-23T07:58:09.503Z,52.70
2018-05-23T08:00:37.787Z,49.45
2018-05-23T08:03:05.300Z,42.40
2018-05-23T08:05:32.831Z,40.37
2018-05-23T08:08:00.404Z,41.17
2018-05-23T08:12:54.975Z,36.35
2018-05-23T08:15:23.277Z,36.47
2018-05-23T08:17:50.868Z,33.50
2018-05-23T08:20:18.393Z,33.97
2018-05-23T08:25:12.983Z,31.30
2018-05-23T08:32:34.703Z,32.10
2018-05-23T08:35:02.208Z,30.60
2018-05-23T08:37:29.746Z,34.43
2018-05-23T08:39:58.099Z,30.40
2018-05-23T08:42:25.684Z,30.70
2018-05-23T08:44:53.189Z,30.90
2018-05-23T08:47:20.701Z,30.47
2018-05-23T08:49:48.976Z,31.20
2018-05-23T08:52:17.288Z,32.60
2018-05-23T08:54:44.918Z,33.70
2018-05-23T08:57:12.581Z,35.97
2018-05-23T08:59:40.875Z,39.15
2018-05-23T09:02:08.843Z,38.67
2018-05-23T09:04:37.029Z,39.45
2018-05-23T09:07:04.913Z,43.40
2018-05-23T09:09:33.174Z,45.20
2018-05-23T09:14:27.743Z,50.60
2018-05-23T09:21:50.375Z,53.45
2018-05-23T09:24:19.221Z,57.10
2018-05-23T09:26:47.491Z,57.05
2018-05-23T09:31:42.872Z,61.20
2018-05-23T09:34:10.434Z,65.60
2018-05-23T09:39:06.697Z,60.90
2018-05-23T09:41:34.227Z,62.15
2018-05-23T09:44:01.763Z,62.67
2018-05-23T09:46:29.275Z,61.20
2018-05-23T09:48:56.783Z,67.20
2018-05-23T09:51:24.291Z,63.30
2018-05-23T09:53:51.795Z,70.80
2018-05-23T09:56:19.299Z,68.90
2018-05-23T10:33:09.642Z,78.17
2018-05-23T10:35:37.257Z,77.43
2018-05-23T10:38:07.070Z,77.73
2018-05-23T10:40:34.604Z,77.50
2018-05-23T10:43:02.899Z,79.03
2018-05-23T10:45:30.891Z,75.77
2018-05-23T10:47:58.553Z,80.17
2018-05-23T10:50:26.297Z,75.33
2018-05-23T10:52:53.846Z,74.23
2018-05-23T10:55:21.493Z,79.47
2018-05-23T10:57:49.861Z,76.30
2018-05-23T11:00:22.491Z,79.93
2018-05-23T11:02:50.280Z,82.97
2018-05-23T11:05:19.164Z,97.13
2018-05-23T11:07:46.962Z,76.50
2018-05-23T11:10:15.956Z,76.40
2018-05-23T11:12:45.337Z,79.50
2018-05-23T11:15:13.054Z,76.30
2018-05-23T11:17:40.643Z,67.53
2018-05-23T11:20:08.382Z,76.37
2018-05-23T11:22:36.059Z,70.53
2018-05-23T11:25:04.123Z,73.13
2018-05-23T11:27:32.237Z,72.97
2018-05-23T11:29:59.961Z,66.73
2018-05-23T11:32:27.479Z,65.93
2018-05-23T11:34:55.859Z,61.93
2018-05-23T11:37:23.432Z,66.53
2018-05-23T11:39:51.392Z,65.07
2018-05-23T11:42:19.697Z,55.83
2018-05-23T11:44:47.223Z,58.77
2018-05-23T11:47:17.071Z,54.80
2018-05-23T11:49:44.769Z,52.80
2018-05-23T11:57:06.967Z,61.50
2018-05-23T11:59:36.869Z,57.37
2018-05-23T12:02:06.463Z,59.57
2018-05-23T12:04:34.298Z,59.15
2018-05-23T12:07:04.971Z,57.27
2018-05-23T12:09:35.053Z,59.80
2018-05-23T12:14:32.749Z,60.43
2018-05-23T12:17:00.291Z,57.07
2018-05-23T12:19:29.829Z,54.87
2018-05-23T12:21:57.396Z,49.13
2018-05-23T12:24:25.370Z,45.60
2018-05-23T12:26:56.133Z,44.87
2018-05-23T12:29:24.731Z,43.50
2018-05-23T13:06:19.189Z,22.00
2018-05-23T13:08:46.750Z,22.93
2018-05-23T13:11:14.649Z,21.30
2018-05-23T13:13:43.350Z,19.90
2018-05-23T13:16:11.167Z,20.40
2018-05-23T13:18:38.703Z,17.30
2018-05-23T13:21:08.555Z,14.33
2018-05-23T13:23:36.204Z,12.73
2018-05-23T13:26:05.619Z,13.10
2018-05-23T13:28:33.936Z,13.30
2018-05-23T13:31:01.609Z,11.17
2018-05-23T13:33:29.173Z,10.90
2018-05-23T13:35:58.089Z,11.10
2018-05-23T13:38:25.707Z,10.90
2018-05-23T13:40:54.139Z,9.90
2018-05-23T13:43:21.704Z,10.97
2018-05-23T13:45:49.280Z,10.50
2018-05-23T13:48:16.997Z,11.27
2018-05-23T13:50:44.602Z,11.37
2018-05-23T13:53:12.203Z,10.70
2018-05-23T13:55:40.865Z,8.73
2018-05-23T13:58:09.463Z,9.37
2018-05-23T14:00:38.684Z,8.97
2018-05-23T14:03:06.549Z,7.70
2018-05-23T14:05:35.344Z,11.33
2018-05-23T14:08:03.192Z,9.27
2018-05-23T14:10:31.686Z,8.80
2018-05-23T14:12:59.763Z,8.47
2018-05-23T14:15:28.227Z,10.10
2018-05-23T14:17:56.043Z,8.30
2018-05-23T14:20:24.455Z,6.43
2018-05-23T14:22:53.879Z,9.80
2018-05-23T14:25:22.797Z,7.60
2018-05-23T14:32:44.792Z,9.60
2018-05-23T14:35:13.523Z,10.33
2018-05-23T14:37:41.142Z,12.00
2018-05-23T14:40:09.512Z,12.30
2018-05-23T14:45:06.637Z,10.80
2018-05-23T14:47:34.468Z,11.27
2018-05-23T14:50:02.775Z,12.20
2018-05-23T14:52:31.730Z,13.67
2018-05-23T14:54:59.527Z,14.70
2018-05-23T14:57:28.375Z,15.53
2018-05-23T14:59:56.202Z,15.20
2018-05-23T15:02:27.484Z,15.70
2018-05-23T15:04:56.490Z,15.80
2018-05-23T15:07:24.566Z,14.53
2018-05-23T15:09:52.491Z,18.60
2018-05-23T15:12:20.208Z,17.07
2018-05-23T15:14:48.553Z,18.10
2018-05-23T15:19:44.791Z,20.55
2018-05-23T15:22:19.781Z,23.63
2018-05-23T15:24:47.551Z,24.60
2018-05-23T15:27:16.740Z,20.30
2018-05-23T15:29:46.838Z,24.27
2018-05-23T15:32:15.519Z,21.83
2018-05-23T15:34:44.364Z,22.27
2018-05-23T15:37:12.203Z,22.23
2018-05-23T15:39:40.850Z,22.20
2018-05-23T15:42:20.392Z,24.63
2018-05-23T15:44:48.991Z,25.20
2018-05-23T15:47:17.359Z,25.80
2018-05-23T15:49:45.673Z,30.23
2018-05-23T15:52:13.536Z,27.73
2018-05-23T15:54:44.379Z,32.97
2018-05-23T15:57:13.218Z,33.97
2018-05-23T15:59:41.129Z,35.53
2018-05-23T16:02:09.436Z,34.47
2018-05-23T16:04:38.373Z,36.40
2018-05-23T16:07:07.224Z,36.87
2018-05-23T16:09:35.027Z,36.40
2018-05-23T16:12:02.908Z,36.67
2018-05-23T16:14:31.509Z,36.67
2018-05-23T16:17:05.535Z,36.47
2018-05-23T16:19:33.405Z,39.57
2018-05-23T16:22:11.314Z,36.07
2018-05-23T16:24:40.454Z,39.57
2018-05-23T16:27:08.445Z,41.43
2018-05-23T16:29:40.574Z,38.90
2018-05-23T16:32:10.359Z,38.57
2018-05-23T16:34:40.255Z,37.10
2018-05-23T16:37:10.089Z,42.40
2018-05-23T16:39:39.540Z,41.67
2018-05-23T16:42:07.327Z,46.23
2018-05-23T16:44:38.657Z,48.53
2018-05-23T16:47:08.009Z,48.93
2018-05-23T16:49:36.419Z,47.50
2018-05-23T16:52:05.267Z,45.80
2018-05-23T16:54:51.535Z,51.43
2018-05-23T16:57:21.237Z,53.90
2018-05-23T16:59:49.632Z,63.00
2018-05-23T17:02:18.359Z,62.87
2018-05-23T17:04:45.872Z,75.00
2018-05-23T17:07:14.454Z,76.00
2018-05-23T17:09:43.452Z,71.65
2018-05-23T17:12:11.598Z,75.33
2018-05-23T17:14:39.910Z,80.77
2018-05-23T17:17:08.965Z,79.70
2018-05-23T17:19:36.658Z,81.10
2018-05-23T17:22:04.181Z,78.77
2018-05-23T17:24:31.871Z,82.77
2018-05-23T17:27:00.315Z,80.10
2018-05-23T17:29:27.899Z,83.53
2018-05-23T17:31:55.569Z,78.60
2018-05-23T17:34:23.158Z,90.50
2018-05-23T17:36:50.744Z,90.73
2018-05-23T17:39:19.303Z,85.60
2018-05-23T17:41:46.912Z,85.63
2018-05-23T17:44:16.048Z,86.10
2018-05-23T17:46:43.676Z,86.27
2018-05-23T17:49:11.367Z,79.30
2018-05-23T17:51:39.758Z,76.13
2018-05-23T17:54:07.333Z,82.17
2018-05-23T17:56:35.814Z,79.97
2018-05-23T17:59:03.400Z,74.30
2018-05-23T18:01:31.029Z,75.97
2018-05-23T18:03:58.674Z,76.70
2018-05-23T18:06:26.526Z,72.17
2018-05-23T18:08:54.005Z,69.77
2018-05-23T18:11:21.593Z,70.70
2018-05-23T18:13:50.112Z,72.70
2018-05-23T18:16:17.812Z,71.40
2018-05-23T18:18:46.083Z,77.40
2018-05-23T18:21:14.361Z,73.57
2018-05-23T18:23:42.215Z,73.67
2018-05-23T18:26:09.691Z,71.43
2018-05-23T18:28:37.968Z,79.90
2018-05-23T18:31:06.457Z,73.27
2018-05-23T18:33:34.060Z,75.30
2018-05-23T18:36:01.591Z,74.17
2018-05-23T18:38:29.156Z,78.00
2018-05-23T18:40:57.636Z,74.50
2018-05-23T18:43:25.474Z,80.03
2018-05-23T18:45:53.893Z,81.60
2018-05-23T18:48:21.445Z,78.27
2018-05-23T18:50:48.951Z,78.90
2018-05-23T18:53:16.528Z,80.50
2018-05-23T18:55:44.161Z,81.57
2018-05-23T18:58:11.699Z,82.80
2018-05-23T19:00:39.424Z,80.53
2018-05-23T19:03:07.190Z,86.77
2018-05-23T19:05:36.352Z,90.43
2018-05-23T19:08:03.948Z,79.73
2018-05-23T19:10:32.315Z,78.23
2018-05-23T19:13:00.872Z,82.33
2018-05-23T19:15:29.392Z,80.80
2018-05-23T19:17:57.894Z,79.75
2018-05-23T19:20:25.535Z,81.10
2018-05-23T19:22:53.218Z,85.97
2018-05-23T19:25:21.119Z,81.67
2018-05-23T19:27:48.628Z,76.40
2018-05-23T19:30:16.276Z,79.53
2018-05-23T19:32:43.932Z,82.47
2018-05-23T19:35:11.500Z,83.40
2018-05-23T19:37:39.934Z,86.80
2018-05-23T19:40:07.929Z,82.73
2018-05-23T19:42:36.470Z,83.50
2018-05-23T19:45:04.110Z,87.10
2018-05-23T19:47:36.268Z,87.35
2018-05-23T19:50:05.902Z,84.10
2018-05-23T19:52:33.510Z,84.73
2018-05-23T19:55:02.041Z,86.83
2018-05-23T19:57:30.659Z,91.83
2018-05-23T19:59:58.973Z,93.60
2018-05-23T20:02:26.988Z,96.65
2018-05-23T20:04:55.177Z,91.63
2018-05-23T20:07:23.931Z,92.50
2018-05-23T20:09:51.708Z,93.30
2018-05-23T20:12:19.446Z,94.47
2018-05-23T20:14:49.346Z,88.07
2018-05-23T20:17:17.797Z,90.57
2018-05-23T20:19:45.372Z,90.47
2018-05-23T20:22:13.078Z,87.47
2018-05-23T20:24:40.798Z,92.10
2018-05-23T20:27:09.232Z,88.07
2018-05-23T20:29:36.916Z,94.83
2018-05-23T20:32:04.500Z,87.23
2018-05-23T20:34:32.844Z,86.43
2018-05-23T20:37:00.667Z,91.80
2018-05-23T20:39:28.418Z,87.50
2018-05-23T20:41:56.062Z,90.37
2018-05-23T20:44:23.732Z,92.83
2018-05-23T20:46:51.413Z,87.17
2018-05-23T20:49:19.062Z,84.23
2018-05-23T20:51:47.608Z,84.33
2018-05-23T20:54:15.344Z,82.70
2018-05-23T20:56:42.989Z,83.53
2018-05-23T20:59:11.454Z,84.77
2018-05-23T21:01:39.100Z,83.17
2018-05-23T21:04:06.778Z,79.37
2018-05-23T21:06:34.534Z,82.87
2018-05-23T21:09:02.071Z,79.97
2018-05-23T21:11:29.764Z,85.60
2018-05-23T21:13:58.108Z,79.80
2018-05-23T21:16:27.220Z,84.73
2018-05-23T21:18:54.820Z,78.50
2018-05-23T21:21:23.243Z,88.73
2018-05-23T21:23:52.431Z,78.53
2018-05-23T21:26:20.157Z,84.13
2018-05-23T21:28:49.840Z,83.77
2018-05-23T21:31:17.507Z,72.83
2018-05-23T21:33:45.161Z,71.40
2018-05-23T21:36:13.553Z,72.97
2018-05-23T21:38:42.198Z,77.17
2018-05-23T21:41:10.903Z,67.57
2018-05-23T21:43:38.522Z,69.67
2018-05-23T21:46:09.734Z,43.90
2018-05-23T21:48:38.068Z,41.57
2018-05-23T21:51:06.500Z,40.70
2018-05-23T21:53:34.140Z,44.77
2018-05-23T21:56:02.694Z,45.03
2018-05-23T21:58:30.333Z,40.13
2018-05-23T22:00:58.022Z,41.63
2018-05-23T22:03:25.737Z,41.27
2018-05-23T22:05:53.405Z,38.13
2018-05-23T22:08:21.120Z,34.70
2018-05-23T22:10:48.884Z,36.73
2018-05-23T22:13:16.629Z,34.60
2018-05-23T22:15:44.361Z,32.60
2018-05-23T22:18:12.312Z,31.13
2018-05-23T22:20:39.849Z,33.17
2018-05-23T22:23:07.422Z,28.50
2018-05-23T22:25:35.175Z,29.67
2018-05-23T22:28:02.766Z,26.40
2018-05-23T22:30:31.144Z,28.30
2018-05-23T22:32:58.815Z,26.47
2018-05-23T22:35:29.280Z,23.27
2018-05-23T22:37:57.451Z,23.50
2018-05-23T22:40:26.293Z,24.60
2018-05-23T22:42:53.938Z,23.67
2018-05-23T22:45:21.640Z,20.30
2018-05-23T22:47:49.507Z,19.80
2018-05-23T22:50:17.972Z,16.43
2018-05-23T22:52:45.642Z,18.37
2018-05-23T22:55:13.311Z,14.70
2018-05-23T22:57:41.128Z,13.83
2018-05-23T23:00:08.905Z,13.60
2018-05-23T23:02:38.805Z,14.40
2018-05-23T23:05:07.317Z,13.73
2018-05-23T23:07:36.717Z,12.13
2018-05-23T23:10:04.522Z,11.87
2018-05-23T23:12:32.221Z,12.35
2018-05-23T23:15:00.005Z,12.53
2018-05-23T23:17:27.727Z,11.13
2018-05-23T23:19:55.518Z,13.53
2018-05-23T23:22:36.573Z,10.97
2018-05-23T23:25:04.243Z,14.07
2018-05-23T23:27:32.065Z,11.07
2018-05-23T23:29:59.831Z,13.70
2018-05-23T23:32:27.646Z,9.93
2018-05-23T23:34:55.282Z,9.10
2018-05-23T23:37:22.918Z,9.10
2018-05-23T23:39:51.398Z,10.30
2018-05-23T23:42:19.051Z,10.93
2018-05-23T23:44:46.690Z,11.47
2018-05-23T23:47:14.363Z,10.30
2018-05-23T23:49:42.265Z,12.83
2018-05-23T23:52:09.896Z,12.47
2018-05-23T23:54:37.950Z,14.37
2018-05-23T23:57:05.509Z,13.30
2018-05-23T23:59:33.187Z,14.15
